sensor_id;sensor_type;location;lat;lon;timestamp;P1;durP1;ratioP1;P2;durP2;ratioP2
16973;SDS011;8603;46.944;7.412;2023-09-07T00:01:29;6.70;;;4.95;;
16973;SDS011;8603;46.944;7.412;2023-09-07T00:03:59;6.50;;;5.90;;
16973;SDS011;8603;46.944;7.412;2023-09-07T00:06:24;6.35;;;5.07;;
16973;SDS011;8603;46.944;7.412;2023-09-07T00:08:57;6.40;;;5.75;;
16973;SDS011;8603;46.944;7.412;2023-09-07T00:14:00;7.35;;;6.63;;
16973;SDS011;8603;46.944;7.412;2023-09-07T00:16:26;8.20;;;6.35;;
16973;SDS011;8603;46.944;7.412;2023-09-07T00:18:52;7.20;;;6.13;;
16973;SDS011;8603;46.944;7.412;2023-09-07T00:21:17;7.03;;;6.32;;
16973;SDS011;8603;46.944;7.412;2023-09-07T00:23:43;8.15;;;7.32;;
16973;SDS011;8603;46.944;7.412;2023-09-07T00:26:08;7.65;;;6.90;;
16973;SDS011;8603;46.944;7.412;2023-09-07T00:28:34;7.80;;;7.00;;
16973;SDS011;8603;46.944;7.412;2023-09-07T00:30:59;7.85;;;6.75;;
16973;SDS011;8603;46.944;7.412;2023-09-07T00:33:25;9.80;;;6.72;;
16973;SDS011;8603;46.944;7.412;2023-09-07T00:35:51;8.75;;;7.05;;
16973;SDS011;8603;46.944;7.412;2023-09-07T00:38:16;8.20;;;6.82;;
16973;SDS011;8603;46.944;7.412;2023-09-07T00:40:42;7.97;;;6.75;;
16973;SDS011;8603;46.944;7.412;2023-09-07T00:43:10;6.75;;;6.15;;
16973;SDS011;8603;46.944;7.412;2023-09-07T00:45:39;7.45;;;6.72;;
16973;SDS011;8603;46.944;7.412;2023-09-07T00:48:05;6.50;;;5.90;;
16973;SDS011;8603;46.944;7.412;2023-09-07T00:50:31;6.95;;;6.22;;
16973;SDS011;8603;46.944;7.412;2023-09-07T00:52:57;8.77;;;7.20;;
16973;SDS011;8603;46.944;7.412;2023-09-07T00:55:24;8.23;;;6.93;;
16973;SDS011;8603;46.944;7.412;2023-09-07T00:57:50;7.90;;;6.90;;
16973;SDS011;8603;46.944;7.412;2023-09-07T01:00:26;7.35;;;6.45;;
16973;SDS011;8603;46.944;7.412;2023-09-07T01:02:55;7.32;;;6.63;;
16973;SDS011;8603;46.944;7.412;2023-09-07T01:05:21;7.90;;;7.13;;
16973;SDS011;8603;46.944;7.412;2023-09-07T01:07:58;7.43;;;6.65;;
16973;SDS011;8603;46.944;7.412;2023-09-07T01:10:36;9.68;;;7.32;;
16973;SDS011;8603;46.944;7.412;2023-09-07T01:13:02;7.40;;;6.63;;
16973;SDS011;8603;46.944;7.412;2023-09-07T01:15:28;7.65;;;6.57;;
16973;SDS011;8603;46.944;7.412;2023-09-07T01:17:55;7.15;;;6.43;;
16973;SDS011;8603;46.944;7.412;2023-09-07T01:20:25;7.93;;;7.15;;
16973;SDS011;8603;46.944;7.412;2023-09-07T01:22:51;8.07;;;7.25;;
16973;SDS011;8603;46.944;7.412;2023-09-07T01:25:17;10.10;;;7.32;;
16973;SDS011;8603;46.944;7.412;2023-09-07T01:27:43;7.30;;;6.63;;
16973;SDS011;8603;46.944;7.412;2023-09-07T01:30:10;8.85;;;7.28;;
16973;SDS011;8603;46.944;7.412;2023-09-07T01:32:36;7.32;;;6.72;;
16973;SDS011;8603;46.944;7.412;2023-09-07T01:35:01;8.85;;;7.88;;
16973;SDS011;8603;46.944;7.412;2023-09-07T01:37:31;11.60;;;8.35;;
16973;SDS011;8603;46.944;7.412;2023-09-07T01:39:57;10.10;;;7.68;;
16973;SDS011;8603;46.944;7.412;2023-09-07T01:42:24;7.93;;;7.22;;
16973;SDS011;8603;46.944;7.412;2023-09-07T01:44:49;9.45;;;8.45;;
16973;SDS011;8603;46.944;7.412;2023-09-07T01:47:15;8.63;;;7.20;;
16973;SDS011;8603;46.944;7.412;2023-09-07T01:49:41;7.75;;;6.70;;
16973;SDS011;8603;46.944;7.412;2023-09-07T01:52:06;8.23;;;7.43;;
16973;SDS011;8603;46.944;7.412;2023-09-07T01:54:32;8.07;;;7.28;;
16973;SDS011;8603;46.944;7.412;2023-09-07T01:56:58;8.70;;;7.50;;
16973;SDS011;8603;46.944;7.412;2023-09-07T01:59:23;7.90;;;7.20;;
16973;SDS011;8603;46.944;7.412;2023-09-07T02:01:49;8.10;;;7.30;;
16973;SDS011;8603;46.944;7.412;2023-09-07T02:04:15;8.10;;;7.28;;
16973;SDS011;8603;46.944;7.412;2023-09-07T02:06:40;8.63;;;6.43;;
16973;SDS011;8603;46.944;7.412;2023-09-07T02:09:06;8.02;;;7.22;;
16973;SDS011;8603;46.944;7.412;2023-09-07T02:11:32;7.40;;;6.70;;
16973;SDS011;8603;46.944;7.412;2023-09-07T02:13:58;7.40;;;6.70;;
16973;SDS011;8603;46.944;7.412;2023-09-07T02:16:24;9.18;;;7.88;;
16973;SDS011;8603;46.944;7.412;2023-09-07T02:18:50;9.02;;;8.13;;
16973;SDS011;8603;46.944;7.412;2023-09-07T02:21:16;8.88;;;8.07;;
16973;SDS011;8603;46.944;7.412;2023-09-07T02:23:41;7.82;;;7.13;;
16973;SDS011;8603;46.944;7.412;2023-09-07T02:26:07;8.55;;;7.72;;
16973;SDS011;8603;46.944;7.412;2023-09-07T02:28:33;8.38;;;7.57;;
16973;SDS011;8603;46.944;7.412;2023-09-07T02:31:02;8.02;;;7.22;;
16973;SDS011;8603;46.944;7.412;2023-09-07T02:33:28;7.00;;;6.40;;
16973;SDS011;8603;46.944;7.412;2023-09-07T02:35:53;7.75;;;7.00;;
16973;SDS011;8603;46.944;7.412;2023-09-07T02:38:19;6.85;;;6.15;;
16973;SDS011;8603;46.944;7.412;2023-09-07T02:40:45;7.30;;;6.40;;
16973;SDS011;8603;46.944;7.412;2023-09-07T02:43:11;9.25;;;6.22;;
16973;SDS011;8603;46.944;7.412;2023-09-07T02:45:37;6.68;;;6.07;;
16973;SDS011;8603;46.944;7.412;2023-09-07T02:48:03;6.63;;;6.03;;
16973;SDS011;8603;46.944;7.412;2023-09-07T02:50:31;7.53;;;6.40;;
16973;SDS011;8603;46.944;7.412;2023-09-07T02:52:58;8.13;;;7.30;;
16973;SDS011;8603;46.944;7.412;2023-09-07T02:55:25;7.60;;;6.80;;
16973;SDS011;8603;46.944;7.412;2023-09-07T02:57:51;7.88;;;6.60;;
16973;SDS011;8603;46.944;7.412;2023-09-07T03:00:16;7.18;;;6.50;;
16973;SDS011;8603;46.944;7.412;2023-09-07T03:02:42;7.50;;;6.72;;
16973;SDS011;8603;46.944;7.412;2023-09-07T03:05:09;7.70;;;6.80;;
16973;SDS011;8603;46.944;7.412;2023-09-07T03:07:35;7.53;;;6.68;;
16973;SDS011;8603;46.944;7.412;2023-09-07T03:10:00;7.75;;;6.95;;
16973;SDS011;8603;46.944;7.412;2023-09-07T03:12:26;7.72;;;6.65;;
16973;SDS011;8603;46.944;7.412;2023-09-07T03:14:52;8.73;;;7.43;;
16973;SDS011;8603;46.944;7.412;2023-09-07T03:17:18;9.48;;;7.38;;
16973;SDS011;8603;46.944;7.412;2023-09-07T03:19:46;8.43;;;7.32;;
16973;SDS011;8603;46.944;7.412;2023-09-07T03:22:11;8.48;;;7.60;;
16973;SDS011;8603;46.944;7.412;2023-09-07T03:24:37;8.30;;;6.63;;
16973;SDS011;8603;46.944;7.412;2023-09-07T03:27:03;7.45;;;6.75;;
16973;SDS011;8603;46.944;7.412;2023-09-07T03:29:30;7.75;;;7.00;;
16973;SDS011;8603;46.944;7.412;2023-09-07T03:31:58;8.23;;;7.07;;
16973;SDS011;8603;46.944;7.412;2023-09-07T03:34:24;7.55;;;6.85;;
16973;SDS011;8603;46.944;7.412;2023-09-07T03:36:50;7.63;;;6.93;;
16973;SDS011;8603;46.944;7.412;2023-09-07T03:39:15;7.40;;;6.70;;
16973;SDS011;8603;46.944;7.412;2023-09-07T03:41:42;7.25;;;6.55;;
16973;SDS011;8603;46.944;7.412;2023-09-07T03:44:08;7.50;;;6.70;;
16973;SDS011;8603;46.944;7.412;2023-09-07T03:46:33;7.80;;;6.80;;
16973;SDS011;8603;46.944;7.412;2023-09-07T03:48:59;8.50;;;7.00;;
16973;SDS011;8603;46.944;7.412;2023-09-07T03:51:25;9.65;;;7.30;;
16973;SDS011;8603;46.944;7.412;2023-09-07T03:53:50;7.43;;;6.72;;
16973;SDS011;8603;46.944;7.412;2023-09-07T03:56:16;7.45;;;6.45;;
16973;SDS011;8603;46.944;7.412;2023-09-07T03:58:41;7.95;;;6.85;;
16973;SDS011;8603;46.944;7.412;2023-09-07T04:01:07;8.55;;;7.40;;
16973;SDS011;8603;46.944;7.412;2023-09-07T04:03:32;7.40;;;6.63;;
16973;SDS011;8603;46.944;7.412;2023-09-07T04:05:58;8.68;;;7.88;;
16973;SDS011;8603;46.944;7.412;2023-09-07T04:08:23;8.85;;;7.60;;
16973;SDS011;8603;46.944;7.412;2023-09-07T04:10:49;9.48;;;8.32;;
16973;SDS011;8603;46.944;7.412;2023-09-07T04:13:15;8.20;;;7.38;;
16973;SDS011;8603;46.944;7.412;2023-09-07T04:15:44;7.78;;;6.97;;
16973;SDS011;8603;46.944;7.412;2023-09-07T04:18:11;9.23;;;6.85;;
16973;SDS011;8603;46.944;7.412;2023-09-07T04:20:38;6.85;;;6.25;;
16973;SDS011;8603;46.944;7.412;2023-09-07T04:23:04;6.78;;;6.18;;
16973;SDS011;8603;46.944;7.412;2023-09-07T04:25:29;7.65;;;6.88;;
16973;SDS011;8603;46.944;7.412;2023-09-07T04:27:55;8.10;;;7.40;;
16973;SDS011;8603;46.944;7.412;2023-09-07T04:30:21;8.50;;;7.70;;
16973;SDS011;8603;46.944;7.412;2023-09-07T04:32:47;8.23;;;7.43;;
16973;SDS011;8603;46.944;7.412;2023-09-07T04:35:13;8.77;;;7.90;;
16973;SDS011;8603;46.944;7.412;2023-09-07T04:37:41;6.88;;;6.28;;
16973;SDS011;8603;46.944;7.412;2023-09-07T04:40:08;8.25;;;7.45;;
16973;SDS011;8603;46.944;7.412;2023-09-07T04:42:34;10.70;;;8.02;;
16973;SDS011;8603;46.944;7.412;2023-09-07T04:45:00;9.20;;;8.18;;
16973;SDS011;8603;46.944;7.412;2023-09-07T04:47:26;8.80;;;8.00;;
16973;SDS011;8603;46.944;7.412;2023-09-07T04:49:51;10.27;;;8.73;;
16973;SDS011;8603;46.944;7.412;2023-09-07T04:52:17;10.10;;;9.20;;
16973;SDS011;8603;46.944;7.412;2023-09-07T04:54:43;10.38;;;9.25;;
16973;SDS011;8603;46.944;7.412;2023-09-07T04:57:09;10.15;;;9.25;;
16973;SDS011;8603;46.944;7.412;2023-09-07T04:59:34;8.82;;;7.97;;
16973;SDS011;8603;46.944;7.412;2023-09-07T05:02:00;12.45;;;9.52;;
16973;SDS011;8603;46.944;7.412;2023-09-07T05:04:28;9.07;;;8.15;;
16973;SDS011;8603;46.944;7.412;2023-09-07T05:06:56;9.13;;;8.25;;
16973;SDS011;8603;46.944;7.412;2023-09-07T05:09:21;10.20;;;9.18;;
16973;SDS011;8603;46.944;7.412;2023-09-07T05:11:48;8.98;;;8.18;;
16973;SDS011;8603;46.944;7.412;2023-09-07T05:14:17;8.90;;;8.00;;
16973;SDS011;8603;46.944;7.412;2023-09-07T05:16:46;9.18;;;7.82;;
16973;SDS011;8603;46.944;7.412;2023-09-07T05:19:12;8.57;;;7.78;;
16973;SDS011;8603;46.944;7.412;2023-09-07T05:21:38;8.45;;;7.65;;
16973;SDS011;8603;46.944;7.412;2023-09-07T05:24:03;11.00;;;9.80;;
16973;SDS011;8603;46.944;7.412;2023-09-07T05:26:29;10.13;;;9.10;;
16973;SDS011;8603;46.944;7.412;2023-09-07T05:28:55;9.73;;;8.82;;
16973;SDS011;8603;46.944;7.412;2023-09-07T05:31:20;8.75;;;8.05;;
16973;SDS011;8603;46.944;7.412;2023-09-07T05:33:46;11.07;;;9.73;;
16973;SDS011;8603;46.944;7.412;2023-09-07T05:36:11;10.45;;;9.43;;
16973;SDS011;8603;46.944;7.412;2023-09-07T05:38:37;8.90;;;8.10;;
16973;SDS011;8603;46.944;7.412;2023-09-07T05:41:03;10.20;;;9.25;;
16973;SDS011;8603;46.944;7.412;2023-09-07T05:43:28;9.20;;;8.30;;
16973;SDS011;8603;46.944;7.412;2023-09-07T05:45:54;10.43;;;9.43;;
16973;SDS011;8603;46.944;7.412;2023-09-07T05:48:19;10.07;;;9.07;;
16973;SDS011;8603;46.944;7.412;2023-09-07T05:50:45;9.75;;;8.85;;
16973;SDS011;8603;46.944;7.412;2023-09-07T05:53:11;9.93;;;8.98;;
16973;SDS011;8603;46.944;7.412;2023-09-07T05:55:36;10.75;;;9.75;;
16973;SDS011;8603;46.944;7.412;2023-09-07T05:58:06;10.80;;;9.80;;
16973;SDS011;8603;46.944;7.412;2023-09-07T06:00:34;9.38;;;8.57;;
16973;SDS011;8603;46.944;7.412;2023-09-07T06:03:00;10.07;;;9.10;;
16973;SDS011;8603;46.944;7.412;2023-09-07T06:05:26;11.65;;;9.10;;
16973;SDS011;8603;46.944;7.412;2023-09-07T06:07:52;9.55;;;8.75;;
16973;SDS011;8603;46.944;7.412;2023-09-07T06:10:18;10.80;;;9.55;;
16973;SDS011;8603;46.944;7.412;2023-09-07T06:12:44;11.73;;;9.30;;
16973;SDS011;8603;46.944;7.412;2023-09-07T06:15:17;9.05;;;7.88;;
16973;SDS011;8603;46.944;7.412;2023-09-07T06:17:46;8.45;;;7.65;;
16973;SDS011;8603;46.944;7.412;2023-09-07T06:20:12;8.77;;;7.20;;
16973;SDS011;8603;46.944;7.412;2023-09-07T06:22:38;8.48;;;7.68;;
16973;SDS011;8603;46.944;7.412;2023-09-07T06:25:03;9.45;;;7.82;;
16973;SDS011;8603;46.944;7.412;2023-09-07T06:27:29;7.85;;;7.15;;
16973;SDS011;8603;46.944;7.412;2023-09-07T06:29:55;8.65;;;7.88;;
16973;SDS011;8603;46.944;7.412;2023-09-07T06:32:23;7.40;;;6.70;;
16973;SDS011;8603;46.944;7.412;2023-09-07T06:35:17;9.00;;;7.15;;
16973;SDS011;8603;46.944;7.412;2023-09-07T06:41:28;8.35;;;7.43;;
16973;SDS011;8603;46.944;7.412;2023-09-07T06:43:54;8.18;;;7.38;;
16973;SDS011;8603;46.944;7.412;2023-09-07T06:46:20;8.30;;;6.22;;
16973;SDS011;8603;46.944;7.412;2023-09-07T06:48:46;8.13;;;6.50;;
16973;SDS011;8603;46.944;7.412;2023-09-07T06:51:21;7.30;;;6.30;;
16973;SDS011;8603;46.944;7.412;2023-09-07T06:53:46;8.30;;;6.95;;
16973;SDS011;8603;46.944;7.412;2023-09-07T06:56:12;6.70;;;6.10;;
16973;SDS011;8603;46.944;7.412;2023-09-07T06:58:38;7.25;;;6.55;;
16973;SDS011;8603;46.944;7.412;2023-09-07T07:01:05;7.60;;;6.35;;
16973;SDS011;8603;46.944;7.412;2023-09-07T07:03:32;6.70;;;5.97;;
16973;SDS011;8603;46.944;7.412;2023-09-07T07:06:00;7.10;;;5.60;;
16973;SDS011;8603;46.944;7.412;2023-09-07T07:08:25;7.05;;;6.28;;
16973;SDS011;8603;46.944;7.412;2023-09-07T07:10:51;20.05;;;6.03;;
16973;SDS011;8603;46.944;7.412;2023-09-07T07:13:17;6.03;;;5.50;;
16973;SDS011;8603;46.944;7.412;2023-09-07T07:15:43;6.35;;;5.78;;
16973;SDS011;8603;46.944;7.412;2023-09-07T07:18:09;7.93;;;5.30;;
16973;SDS011;8603;46.944;7.412;2023-09-07T07:20:38;6.57;;;5.97;;
16973;SDS011;8603;46.944;7.412;2023-09-07T07:23:04;7.47;;;6.15;;
16973;SDS011;8603;46.944;7.412;2023-09-07T07:25:38;6.55;;;5.40;;
16973;SDS011;8603;46.944;7.412;2023-09-07T07:28:10;10.27;;;6.15;;
16973;SDS011;8603;46.944;7.412;2023-09-07T07:30:36;7.70;;;5.70;;
16973;SDS011;8603;46.944;7.412;2023-09-07T07:33:03;6.18;;;5.65;;
16973;SDS011;8603;46.944;7.412;2023-09-07T07:35:33;5.63;;;5.13;;
16973;SDS011;8603;46.944;7.412;2023-09-07T07:38:02;6.65;;;5.30;;
16973;SDS011;8603;46.944;7.412;2023-09-07T07:40:29;6.82;;;5.68;;
16973;SDS011;8603;46.944;7.412;2023-09-07T07:42:55;6.57;;;5.20;;
16973;SDS011;8603;46.944;7.412;2023-09-07T07:45:21;7.93;;;6.65;;
16973;SDS011;8603;46.944;7.412;2023-09-07T07:47:48;7.13;;;5.90;;
16973;SDS011;8603;46.944;7.412;2023-09-07T07:50:17;8.00;;;5.60;;
16973;SDS011;8603;46.944;7.412;2023-09-07T07:52:43;9.43;;;5.75;;
16973;SDS011;8603;46.944;7.412;2023-09-07T07:55:10;8.02;;;6.05;;
16973;SDS011;8603;46.944;7.412;2023-09-07T07:57:36;6.47;;;5.88;;
16973;SDS011;8603;46.944;7.412;2023-09-07T08:00:02;7.75;;;5.43;;
16973;SDS011;8603;46.944;7.412;2023-09-07T08:02:31;6.97;;;5.40;;
16973;SDS011;8603;46.944;7.412;2023-09-07T08:04:57;5.95;;;5.35;;
16973;SDS011;8603;46.944;7.412;2023-09-07T08:07:24;6.13;;;5.53;;
16973;SDS011;8603;46.944;7.412;2023-09-07T08:09:50;6.72;;;5.20;;
16973;SDS011;8603;46.944;7.412;2023-09-07T08:12:34;8.38;;;5.05;;
16973;SDS011;8603;46.944;7.412;2023-09-07T08:15:11;5.82;;;4.97;;
16973;SDS011;8603;46.944;7.412;2023-09-07T08:17:37;7.15;;;5.72;;
16973;SDS011;8603;46.944;7.412;2023-09-07T08:20:02;6.25;;;4.93;;
16973;SDS011;8603;46.944;7.412;2023-09-07T08:22:28;5.63;;;4.97;;
16973;SDS011;8603;46.944;7.412;2023-09-07T08:24:54;5.20;;;4.70;;
16973;SDS011;8603;46.944;7.412;2023-09-07T08:27:20;5.25;;;4.70;;
16973;SDS011;8603;46.944;7.412;2023-09-07T08:29:46;6.20;;;5.53;;
16973;SDS011;8603;46.944;7.412;2023-09-07T08:32:17;5.68;;;5.18;;
16973;SDS011;8603;46.944;7.412;2023-09-07T08:34:42;6.93;;;5.00;;
16973;SDS011;8603;46.944;7.412;2023-09-07T08:37:08;7.32;;;5.95;;
16973;SDS011;8603;46.944;7.412;2023-09-07T08:39:34;9.25;;;5.22;;
16973;SDS011;8603;46.944;7.412;2023-09-07T08:42:00;5.90;;;5.30;;
16973;SDS011;8603;46.944;7.412;2023-09-07T08:44:36;6.43;;;5.30;;
16973;SDS011;8603;46.944;7.412;2023-09-07T08:47:03;6.28;;;5.43;;
16973;SDS011;8603;46.944;7.412;2023-09-07T08:49:29;5.35;;;4.85;;
16973;SDS011;8603;46.944;7.412;2023-09-07T08:51:58;7.30;;;5.63;;
16973;SDS011;8603;46.944;7.412;2023-09-07T08:54:27;6.13;;;4.80;;
16973;SDS011;8603;46.944;7.412;2023-09-07T08:56:55;5.38;;;4.88;;
16973;SDS011;8603;46.944;7.412;2023-09-07T08:59:29;5.93;;;5.32;;
16973;SDS011;8603;46.944;7.412;2023-09-07T09:02:02;5.38;;;4.88;;
16973;SDS011;8603;46.944;7.412;2023-09-07T09:04:30;6.22;;;5.03;;
16973;SDS011;8603;46.944;7.412;2023-09-07T09:06:56;4.82;;;4.30;;
16973;SDS011;8603;46.944;7.412;2023-09-07T09:09:22;6.70;;;5.43;;
16973;SDS011;8603;46.944;7.412;2023-09-07T09:11:49;5.32;;;4.82;;
16973;SDS011;8603;46.944;7.412;2023-09-07T09:14:18;5.18;;;4.68;;
16973;SDS011;8603;46.944;7.412;2023-09-07T09:16:48;5.50;;;4.80;;
16973;SDS011;8603;46.944;7.412;2023-09-07T09:19:15;5.43;;;4.93;;
16973;SDS011;8603;46.944;7.412;2023-09-07T09:21:41;6.00;;;5.40;;
16973;SDS011;8603;46.944;7.412;2023-09-07T09:24:12;5.15;;;4.72;;
16973;SDS011;8603;46.944;7.412;2023-09-07T09:26:37;8.05;;;5.10;;
16973;SDS011;8603;46.944;7.412;2023-09-07T09:29:03;5.18;;;4.68;;
16973;SDS011;8603;46.944;7.412;2023-09-07T09:31:29;5.80;;;4.95;;
16973;SDS011;8603;46.944;7.412;2023-09-07T09:33:55;5.70;;;5.07;;
16973;SDS011;8603;46.944;7.412;2023-09-07T09:36:21;5.00;;;4.60;;
16973;SDS011;8603;46.944;7.412;2023-09-07T09:38:48;5.18;;;4.68;;
16973;SDS011;8603;46.944;7.412;2023-09-07T09:41:15;4.90;;;4.40;;
16973;SDS011;8603;46.944;7.412;2023-09-07T09:43:42;4.75;;;4.25;;
16973;SDS011;8603;46.944;7.412;2023-09-07T09:46:10;7.07;;;4.65;;
16973;SDS011;8603;46.944;7.412;2023-09-07T09:48:37;7.88;;;5.22;;
16973;SDS011;8603;46.944;7.412;2023-09-07T09:51:03;5.53;;;5.00;;
16973;SDS011;8603;46.944;7.412;2023-09-07T09:53:29;5.13;;;4.55;;
16973;SDS011;8603;46.944;7.412;2023-09-07T09:55:55;4.90;;;4.50;;
16973;SDS011;8603;46.944;7.412;2023-09-07T09:58:30;5.20;;;4.75;;
16973;SDS011;8603;46.944;7.412;2023-09-07T10:00:58;6.22;;;5.63;;
16973;SDS011;8603;46.944;7.412;2023-09-07T10:03:31;5.43;;;4.80;;
16973;SDS011;8603;46.944;7.412;2023-09-07T10:06:10;8.10;;;4.85;;
16973;SDS011;8603;46.944;7.412;2023-09-07T10:08:37;5.70;;;4.63;;
16973;SDS011;8603;46.944;7.412;2023-09-07T10:11:08;6.38;;;4.75;;
16973;SDS011;8603;46.944;7.412;2023-09-07T10:13:34;6.15;;;5.07;;
16973;SDS011;8603;46.944;7.412;2023-09-07T10:16:01;7.53;;;4.57;;
16973;SDS011;8603;46.944;7.412;2023-09-07T10:18:41;5.35;;;4.95;;
16973;SDS011;8603;46.944;7.412;2023-09-07T10:21:09;5.68;;;4.60;;
16973;SDS011;8603;46.944;7.412;2023-09-07T10:26:04;6.28;;;4.80;;
16973;SDS011;8603;46.944;7.412;2023-09-07T10:28:35;5.60;;;4.78;;
16973;SDS011;8603;46.944;7.412;2023-09-07T10:31:04;6.25;;;4.43;;
16973;SDS011;8603;46.944;7.412;2023-09-07T10:33:52;5.97;;;5.38;;
16973;SDS011;8603;46.944;7.412;2023-09-07T10:36:25;5.90;;;5.32;;
16973;SDS011;8603;46.944;7.412;2023-09-07T10:38:52;5.40;;;4.53;;
16973;SDS011;8603;46.944;7.412;2023-09-07T10:41:21;6.40;;;4.90;;
16973;SDS011;8603;46.944;7.412;2023-09-07T10:43:47;5.30;;;4.80;;
16973;SDS011;8603;46.944;7.412;2023-09-07T10:46:14;5.20;;;4.70;;
16973;SDS011;8603;46.944;7.412;2023-09-07T10:48:44;5.90;;;5.07;;
16973;SDS011;8603;46.944;7.412;2023-09-07T10:51:19;6.72;;;4.80;;
16973;SDS011;8603;46.944;7.412;2023-09-07T10:53:45;5.35;;;4.85;;
16973;SDS011;8603;46.944;7.412;2023-09-07T10:56:11;5.70;;;5.20;;
16973;SDS011;8603;46.944;7.412;2023-09-07T10:58:37;5.57;;;5.03;;
16973;SDS011;8603;46.944;7.412;2023-09-07T11:01:08;5.20;;;4.70;;
16973;SDS011;8603;46.944;7.412;2023-09-07T11:03:34;4.82;;;4.43;;
16973;SDS011;8603;46.944;7.412;2023-09-07T11:06:08;4.95;;;4.53;;
16973;SDS011;8603;46.944;7.412;2023-09-07T11:08:36;5.93;;;4.95;;
16973;SDS011;8603;46.944;7.412;2023-09-07T11:11:02;5.47;;;4.97;;
16973;SDS011;8603;46.944;7.412;2023-09-07T11:13:32;5.60;;;5.10;;
16973;SDS011;8603;46.944;7.412;2023-09-07T11:15:58;5.68;;;5.18;;
16973;SDS011;8603;46.944;7.412;2023-09-07T11:18:24;7.80;;;4.80;;
16973;SDS011;8603;46.944;7.412;2023-09-07T11:20:51;9.23;;;5.18;;
16973;SDS011;8603;46.944;7.412;2023-09-07T11:23:18;5.57;;;4.50;;
16973;SDS011;8603;46.944;7.412;2023-09-07T11:25:46;6.00;;;4.55;;
16973;SDS011;8603;46.944;7.412;2023-09-07T11:28:14;5.75;;;5.25;;
16973;SDS011;8603;46.944;7.412;2023-09-07T11:33:18;7.35;;;4.93;;
16973;SDS011;8603;46.944;7.412;2023-09-07T11:35:44;5.95;;;5.32;;
16973;SDS011;8603;46.944;7.412;2023-09-07T11:38:12;6.30;;;5.30;;
16973;SDS011;8603;46.944;7.412;2023-09-07T11:40:38;5.63;;;4.93;;
16973;SDS011;8603;46.944;7.412;2023-09-07T11:43:04;6.78;;;4.82;;
16973;SDS011;8603;46.944;7.412;2023-09-07T11:45:29;6.47;;;4.90;;
16973;SDS011;8603;46.944;7.412;2023-09-07T11:47:57;5.38;;;4.57;;
16973;SDS011;8603;46.944;7.412;2023-09-07T11:50:23;5.47;;;4.78;;
16973;SDS011;8603;46.944;7.412;2023-09-07T11:52:49;7.60;;;4.95;;
16973;SDS011;8603;46.944;7.412;2023-09-07T11:55:15;5.63;;;5.13;;
16973;SDS011;8603;46.944;7.412;2023-09-07T11:57:41;5.22;;;4.55;;
16973;SDS011;8603;46.944;7.412;2023-09-07T12:00:07;5.65;;;4.70;;
16973;SDS011;8603;46.944;7.412;2023-09-07T12:02:35;5.90;;;5.35;;
16973;SDS011;8603;46.944;7.412;2023-09-07T12:05:02;6.57;;;5.22;;
16973;SDS011;8603;46.944;7.412;2023-09-07T12:07:29;5.05;;;4.50;;
16973;SDS011;8603;46.944;7.412;2023-09-07T12:09:55;6.65;;;4.20;;
16973;SDS011;8603;46.944;7.412;2023-09-07T12:12:22;6.15;;;4.78;;
16973;SDS011;8603;46.944;7.412;2023-09-07T12:14:48;5.32;;;4.82;;
16973;SDS011;8603;46.944;7.412;2023-09-07T12:17:14;5.40;;;4.90;;
16973;SDS011;8603;46.944;7.412;2023-09-07T12:19:39;5.38;;;4.78;;
16973;SDS011;8603;46.944;7.412;2023-09-07T12:22:10;5.40;;;4.63;;
16973;SDS011;8603;46.944;7.412;2023-09-07T12:24:36;5.20;;;4.70;;
16973;SDS011;8603;46.944;7.412;2023-09-07T12:29:43;5.28;;;4.78;;
16973;SDS011;8603;46.944;7.412;2023-09-07T12:32:20;5.10;;;4.60;;
16973;SDS011;8603;46.944;7.412;2023-09-07T12:34:59;5.13;;;4.63;;
16973;SDS011;8603;46.944;7.412;2023-09-07T12:37:30;8.70;;;4.90;;
16973;SDS011;8603;46.944;7.412;2023-09-07T12:39:55;9.10;;;5.13;;
16973;SDS011;8603;46.944;7.412;2023-09-07T12:42:21;5.25;;;4.75;;
16973;SDS011;8603;46.944;7.412;2023-09-07T12:44:47;6.60;;;4.60;;
16973;SDS011;8603;46.944;7.412;2023-09-07T12:47:12;6.95;;;4.63;;
16973;SDS011;8603;46.944;7.412;2023-09-07T12:49:38;5.53;;;4.28;;
16973;SDS011;8603;46.944;7.412;2023-09-07T12:52:13;5.38;;;4.72;;
16973;SDS011;8603;46.944;7.412;2023-09-07T12:54:39;6.15;;;4.75;;
16973;SDS011;8603;46.944;7.412;2023-09-07T12:57:05;6.60;;;5.13;;
16973;SDS011;8603;46.944;7.412;2023-09-07T12:59:33;5.30;;;4.80;;
16973;SDS011;8603;46.944;7.412;2023-09-07T13:01:59;5.85;;;4.70;;
16973;SDS011;8603;46.944;7.412;2023-09-07T13:04:48;5.20;;;4.22;;
16973;SDS011;8603;46.944;7.412;2023-09-07T13:07:34;4.55;;;4.15;;
16973;SDS011;8603;46.944;7.412;2023-09-07T13:10:09;4.53;;;4.05;;
16973;SDS011;8603;46.944;7.412;2023-09-07T13:13:26;5.10;;;3.97;;
16973;SDS011;8603;46.944;7.412;2023-09-07T13:15:58;5.00;;;4.15;;
16973;SDS011;8603;46.944;7.412;2023-09-07T13:18:26;4.82;;;4.43;;
16973;SDS011;8603;46.944;7.412;2023-09-07T13:21:12;6.00;;;4.10;;
16973;SDS011;8603;46.944;7.412;2023-09-07T13:23:37;5.00;;;4.45;;
16973;SDS011;8603;46.944;7.412;2023-09-07T13:29:42;4.63;;;4.10;;
16973;SDS011;8603;46.944;7.412;2023-09-07T13:32:08;6.95;;;4.45;;
16973;SDS011;8603;46.944;7.412;2023-09-07T13:34:37;6.75;;;5.03;;
16973;SDS011;8603;46.944;7.412;2023-09-07T13:39:55;4.70;;;4.25;;
16973;SDS011;8603;46.944;7.412;2023-09-07T13:42:24;7.90;;;4.20;;
16973;SDS011;8603;46.944;7.412;2023-09-07T13:44:52;4.50;;;4.10;;
16973;SDS011;8603;46.944;7.412;2023-09-07T13:47:17;5.60;;;4.03;;
16973;SDS011;8603;46.944;7.412;2023-09-07T13:49:43;7.03;;;4.50;;
16973;SDS011;8603;46.944;7.412;2023-09-07T13:52:08;4.57;;;4.18;;
16973;SDS011;8603;46.944;7.412;2023-09-07T13:54:34;6.20;;;4.38;;
16973;SDS011;8603;46.944;7.412;2023-09-07T13:57:00;5.05;;;4.28;;
16973;SDS011;8603;46.944;7.412;2023-09-07T14:02:20;5.57;;;4.75;;
16973;SDS011;8603;46.944;7.412;2023-09-07T14:04:50;5.03;;;4.20;;
16973;SDS011;8603;46.944;7.412;2023-09-07T14:07:19;5.35;;;4.85;;
16973;SDS011;8603;46.944;7.412;2023-09-07T14:09:51;6.18;;;4.55;;
16973;SDS011;8603;46.944;7.412;2023-09-07T14:12:23;5.10;;;4.60;;
16973;SDS011;8603;46.944;7.412;2023-09-07T14:15:11;5.18;;;4.70;;
16973;SDS011;8603;46.944;7.412;2023-09-07T14:17:40;5.43;;;4.82;;
16973;SDS011;8603;46.944;7.412;2023-09-07T14:20:06;5.85;;;4.43;;
16973;SDS011;8603;46.944;7.412;2023-09-07T14:22:32;5.60;;;5.10;;
16973;SDS011;8603;46.944;7.412;2023-09-07T14:25:04;5.28;;;4.78;;
16973;SDS011;8603;46.944;7.412;2023-09-07T14:27:33;5.85;;;4.15;;
16973;SDS011;8603;46.944;7.412;2023-09-07T14:29:59;4.82;;;4.43;;
16973;SDS011;8603;46.944;7.412;2023-09-07T14:32:25;5.43;;;4.32;;
16973;SDS011;8603;46.944;7.412;2023-09-07T14:35:01;5.25;;;4.65;;
16973;SDS011;8603;46.944;7.412;2023-09-07T14:37:26;5.15;;;4.57;;
16973;SDS011;8603;46.944;7.412;2023-09-07T14:39:57;5.82;;;4.75;;
16973;SDS011;8603;46.944;7.412;2023-09-07T14:42:26;5.75;;;4.63;;
16973;SDS011;8603;46.944;7.412;2023-09-07T14:44:54;6.28;;;5.03;;
16973;SDS011;8603;46.944;7.412;2023-09-07T14:47:22;7.15;;;5.03;;
16973;SDS011;8603;46.944;7.412;2023-09-07T14:49:51;5.45;;;4.95;;
16973;SDS011;8603;46.944;7.412;2023-09-07T14:52:17;6.05;;;4.85;;
16973;SDS011;8603;46.944;7.412;2023-09-07T14:54:52;5.85;;;4.50;;
16973;SDS011;8603;46.944;7.412;2023-09-07T14:57:18;5.63;;;4.88;;
16973;SDS011;8603;46.944;7.412;2023-09-07T14:59:46;5.63;;;4.65;;
16973;SDS011;8603;46.944;7.412;2023-09-07T15:02:21;5.20;;;4.68;;
16973;SDS011;8603;46.944;7.412;2023-09-07T15:08:15;4.70;;;4.00;;
16973;SDS011;8603;46.944;7.412;2023-09-07T15:10:41;6.07;;;4.50;;
16973;SDS011;8603;46.944;7.412;2023-09-07T15:13:07;7.25;;;5.00;;
16973;SDS011;8603;46.944;7.412;2023-09-07T15:15:41;8.82;;;4.60;;
16973;SDS011;8603;46.944;7.412;2023-09-07T15:18:07;5.00;;;4.60;;
16973;SDS011;8603;46.944;7.412;2023-09-07T15:20:33;8.48;;;5.10;;
16973;SDS011;8603;46.944;7.412;2023-09-07T15:23:00;5.13;;;4.63;;
16973;SDS011;8603;46.944;7.412;2023-09-07T15:25:26;8.25;;;4.40;;
16973;SDS011;8603;46.944;7.412;2023-09-07T15:27:52;5.68;;;4.55;;
16973;SDS011;8603;46.944;7.412;2023-09-07T15:30:22;6.35;;;4.88;;